sensor_id;sensor_type;location;lat;lon;timestamp;pressure;altitude;pressure_sealevel;temperature;humidity
8059;BME280;4072;42.668;23.396;2023-06-14T00:00:08;94861.88;;;17.28;100.00
8059;BME280;4072;42.668;23.396;2023-06-14T00:02:38;94854.63;;;17.14;100.00
8059;BME280;4072;42.668;23.396;2023-06-14T00:05:07;94865.81;;;17.16;100.00
8059;BME280;4072;42.668;23.396;2023-06-14T00:07:37;94867.78;;;17.10;100.00
8059;BME280;4072;42.668;23.396;2023-06-14T00:10:10;94864.06;;;17.07;100.00
8059;BME280;4072;42.668;23.396;2023-06-14T00:12:41;94837.19;;;16.89;100.00
8059;BME280;4072;42.668;23.396;2023-06-14T00:15:11;94861.81;;;17.06;100.00
8059;BME280;4072;42.668;23.396;2023-06-14T00:17:42;94852.38;;;17.07;100.00
8059;BME280;4072;42.668;23.396;2023-06-14T00:20:14;94848.38;;;17.02;100.00
8059;BME280;4072;42.668;23.396;2023-06-14T00:22:43;94850.63;;;17.09;100.00
8059;BME280;4072;42.668;23.396;2023-06-14T00:25:12;94848.19;;;17.22;100.00
8059;BME280;4072;42.668;23.396;2023-06-14T00:27:54;94844.47;;;17.31;100.00
8059;BME280;4072;42.668;23.396;2023-06-14T00:30:24;94824.84;;;17.32;100.00
8059;BME280;4072;42.668;23.396;2023-06-14T00:32:57;94842.78;;;17.44;100.00
8059;BME280;4072;42.668;23.396;2023-06-14T00:35:26;94846.50;;;17.41;100.00
8059;BME280;4072;42.668;23.396;2023-06-14T00:37:54;94837.28;;;17.39;100.00
8059;BME280;4072;42.668;23.396;2023-06-14T00:40:22;94763.63;;;16.80;100.00
8059;BME280;4072;42.668;23.396;2023-06-14T00:42:50;94837.25;;;17.28;100.00
8059;BME280;4072;42.668;23.396;2023-06-14T00:45:19;94837.75;;;17.26;100.00
8059;BME280;4072;42.668;23.396;2023-06-14T00:47:50;94834.78;;;17.35;100.00
8059;BME280;4072;42.668;23.396;2023-06-14T00:50:20;94830.09;;;17.47;100.00
8059;BME280;4072;42.668;23.396;2023-06-14T00:52:50;94830.34;;;17.55;100.00
8059;BME280;4072;42.668;23.396;2023-06-14T00:55:18;94833.84;;;17.50;100.00
8059;BME280;4072;42.668;23.396;2023-06-14T00:57:47;94795.28;;;17.42;100.00
8059;BME280;4072;42.668;23.396;2023-06-14T01:00:16;94825.63;;;17.55;100.00
8059;BME280;4072;42.668;23.396;2023-06-14T01:02:44;94817.66;;;17.57;100.00
8059;BME280;4072;42.668;23.396;2023-06-14T01:05:16;94829.84;;;17.51;100.00
8059;BME280;4072;42.668;23.396;2023-06-14T01:07:58;94789.53;;;17.23;100.00
8059;BME280;4072;42.668;23.396;2023-06-14T01:10:36;94839.81;;;17.65;100.00
8059;BME280;4072;42.668;23.396;2023-06-14T01:13:13;94759.19;;;16.94;100.00
8059;BME280;4072;42.668;23.396;2023-06-14T01:15:45;94829.09;;;17.67;100.00
8059;BME280;4072;42.668;23.396;2023-06-14T01:18:14;94825.63;;;17.61;100.00
8059;BME280;4072;42.668;23.396;2023-06-14T01:20:47;94826.38;;;17.61;100.00
8059;BME280;4072;42.668;23.396;2023-06-14T01:23:20;94822.41;;;17.57;100.00
8059;BME280;4072;42.668;23.396;2023-06-14T01:25:49;94826.38;;;17.56;100.00
8059;BME280;4072;42.668;23.396;2023-06-14T01:28:21;94824.66;;;17.58;100.00
8059;BME280;4072;42.668;23.396;2023-06-14T01:30:51;94824.13;;;17.60;100.00
8059;BME280;4072;42.668;23.396;2023-06-14T01:33:22;94822.41;;;17.57;100.00
8059;BME280;4072;42.668;23.396;2023-06-14T01:35:52;94823.88;;;17.58;100.00
8059;BME280;4072;42.668;23.396;2023-06-14T01:38:25;94820.91;;;17.50;100.00
8059;BME280;4072;42.668;23.396;2023-06-14T01:40:56;94821.41;;;17.54;100.00
8059;BME280;4072;42.668;23.396;2023-06-14T01:43:28;94817.16;;;17.53;100.00
8059;BME280;4072;42.668;23.396;2023-06-14T01:45:58;94825.38;;;17.53;100.00
8059;BME280;4072;42.668;23.396;2023-06-14T01:48:27;94815.91;;;17.60;100.00
8059;BME280;4072;42.668;23.396;2023-06-14T01:50:55;94821.38;;;17.60;100.00
8059;BME280;4072;42.668;23.396;2023-06-14T01:53:25;94806.00;;;17.57;100.00
8059;BME280;4072;42.668;23.396;2023-06-14T01:55:53;94820.91;;;17.56;100.00
8059;BME280;4072;42.668;23.396;2023-06-14T01:58:21;94766.94;;;17.28;100.00
8059;BME280;4072;42.668;23.396;2023-06-14T02:00:51;94818.91;;;17.62;100.00
8059;BME280;4072;42.668;23.396;2023-06-14T02:03:22;94791.06;;;17.35;100.00
8059;BME280;4072;42.668;23.396;2023-06-14T02:05:51;94826.63;;;17.47;100.00
8059;BME280;4072;42.668;23.396;2023-06-14T02:08:21;94829.38;;;17.58;100.00
8059;BME280;4072;42.668;23.396;2023-06-14T02:10:50;94776.63;;;17.18;100.00
8059;BME280;4072;42.668;23.396;2023-06-14T02:13:18;94840.53;;;17.48;100.00
8059;BME280;4072;42.668;23.396;2023-06-14T02:15:47;94826.34;;;17.33;100.00
8059;BME280;4072;42.668;23.396;2023-06-14T02:18:21;94832.78;;;17.19;100.00
8059;BME280;4072;42.668;23.396;2023-06-14T02:20:50;94855.88;;;17.13;100.00
8059;BME280;4072;42.668;23.396;2023-06-14T02:23:18;94856.59;;;17.02;100.00
8059;BME280;4072;42.668;23.396;2023-06-14T02:25:46;94858.56;;;16.96;100.00
8059;BME280;4072;42.668;23.396;2023-06-14T02:28:16;94868.47;;;16.88;100.00
8059;BME280;4072;42.668;23.396;2023-06-14T02:30:44;94817.19;;;16.50;100.00
8059;BME280;4072;42.668;23.396;2023-06-14T02:33:12;94862.50;;;16.84;100.00
8059;BME280;4072;42.668;23.396;2023-06-14T02:35:40;94861.00;;;16.83;100.00
8059;BME280;4072;42.668;23.396;2023-06-14T02:38:09;94861.75;;;16.84;100.00
8059;BME280;4072;42.668;23.396;2023-06-14T02:40:39;94841.31;;;16.63;100.00
8059;BME280;4072;42.668;23.396;2023-06-14T02:43:09;94864.69;;;16.75;100.00
8059;BME280;4072;42.668;23.396;2023-06-14T02:45:39;94855.97;;;16.65;100.00
8059;BME280;4072;42.668;23.396;2023-06-14T02:48:08;94867.13;;;16.62;100.00
8059;BME280;4072;42.668;23.396;2023-06-14T02:50:36;94864.38;;;16.56;100.00
8059;BME280;4072;42.668;23.396;2023-06-14T02:53:06;94865.34;;;16.59;100.00
8059;BME280;4072;42.668;23.396;2023-06-14T02:55:34;94859.63;;;16.51;100.00
8059;BME280;4072;42.668;23.396;2023-06-14T02:58:07;94824.19;;;16.20;100.00
8059;BME280;4072;42.668;23.396;2023-06-14T03:00:36;94876.72;;;16.46;100.00
8059;BME280;4072;42.668;23.396;2023-06-14T03:03:06;94869.22;;;16.41;100.00
8059;BME280;4072;42.668;23.396;2023-06-14T03:05:43;94876.91;;;16.37;100.00
8059;BME280;4072;42.668;23.396;2023-06-14T03:08:12;94873.66;;;16.33;100.00
8059;BME280;4072;42.668;23.396;2023-06-14T03:10:43;94861.16;;;16.21;100.00
8059;BME280;4072;42.668;23.396;2023-06-14T03:13:12;94884.06;;;16.29;100.00
8059;BME280;4072;42.668;23.396;2023-06-14T03:15:40;94880.28;;;16.21;100.00
8059;BME280;4072;42.668;23.396;2023-06-14T03:18:12;94879.31;;;16.24;100.00
8059;BME280;4072;42.668;23.396;2023-06-14T03:20:41;94878.78;;;16.20;100.00
8059;BME280;4072;42.668;23.396;2023-06-14T03:23:12;94883.00;;;16.21;100.00
8059;BME280;4072;42.668;23.396;2023-06-14T03:25:40;94886.97;;;16.20;100.00
8059;BME280;4072;42.668;23.396;2023-06-14T03:28:09;94888.69;;;16.18;100.00
8059;BME280;4072;42.668;23.396;2023-06-14T03:30:37;94874.78;;;16.16;100.00
8059;BME280;4072;42.668;23.396;2023-06-14T03:33:06;94874.53;;;16.14;100.00
8059;BME280;4072;42.668;23.396;2023-06-14T03:35:36;94891.22;;;16.27;100.00
8059;BME280;4072;42.668;23.396;2023-06-14T03:38:05;94888.47;;;16.21;100.00
8059;BME280;4072;42.668;23.396;2023-06-14T03:40:34;94893.91;;;16.21;100.00
8059;BME280;4072;42.668;23.396;2023-06-14T03:43:03;94894.44;;;16.25;100.00
8059;BME280;4072;42.668;23.396;2023-06-14T03:45:32;94901.41;;;16.26;100.00
8059;BME280;4072;42.668;23.396;2023-06-14T03:48:00;94888.28;;;16.30;100.00
8059;BME280;4072;42.668;23.396;2023-06-14T03:50:29;94902.16;;;16.32;100.00
8059;BME280;4072;42.668;23.396;2023-06-14T03:53:00;94878.53;;;16.18;100.00
8059;BME280;4072;42.668;23.396;2023-06-14T03:55:29;94893.97;;;16.32;100.00
8059;BME280;4072;42.668;23.396;2023-06-14T03:58:01;94893.25;;;16.32;100.00
8059;BME280;4072;42.668;23.396;2023-06-14T04:00:29;94896.97;;;16.34;100.00
8059;BME280;4072;42.668;23.396;2023-06-14T04:02:58;94889.53;;;16.29;100.00
8059;BME280;4072;42.668;23.396;2023-06-14T04:05:27;94900.22;;;16.38;100.00
8059;BME280;4072;42.668;23.396;2023-06-14T04:07:59;94908.41;;;16.38;100.00
8059;BME280;4072;42.668;23.396;2023-06-14T04:10:28;94865.94;;;16.26;100.00
8059;BME280;4072;42.668;23.396;2023-06-14T04:12:56;94913.09;;;16.74;100.00
8059;BME280;4072;42.668;23.396;2023-06-14T04:15:24;94907.78;;;17.07;100.00
8059;BME280;4072;42.668;23.396;2023-06-14T04:17:54;94888.41;;;17.05;100.00
8059;BME280;4072;42.668;23.396;2023-06-14T04:20:24;94883.47;;;17.20;100.00
8059;BME280;4072;42.668;23.396;2023-06-14T04:22:53;94885.78;;;17.44;100.00
8059;BME280;4072;42.668;23.396;2023-06-14T04:25:25;94885.03;;;17.43;100.00
8059;BME280;4072;42.668;23.396;2023-06-14T04:27:56;94881.56;;;17.48;100.00
8059;BME280;4072;42.668;23.396;2023-06-14T04:30:28;94881.56;;;17.48;100.00
8059;BME280;4072;42.668;23.396;2023-06-14T04:32:58;94881.34;;;17.69;100.00
8059;BME280;4072;42.668;23.396;2023-06-14T04:35:27;94877.13;;;17.84;100.00
8059;BME280;4072;42.668;23.396;2023-06-14T04:37:55;94877.38;;;17.97;100.00
8059;BME280;4072;42.668;23.396;2023-06-14T04:40:25;94869.16;;;18.08;100.00
8059;BME280;4072;42.668;23.396;2023-06-14T04:42:53;94844.22;;;18.23;100.00
8059;BME280;4072;42.668;23.396;2023-06-14T04:45:22;94815.59;;;18.40;100.00
8059;BME280;4072;42.668;23.396;2023-06-14T04:47:50;94861.63;;;18.47;100.00
8059;BME280;4072;42.668;23.396;2023-06-14T04:50:24;94874.59;;;18.19;100.00
8059;BME280;4072;42.668;23.396;2023-06-14T04:52:53;94875.13;;;17.96;100.00
8059;BME280;4072;42.668;23.396;2023-06-14T04:55:21;94888.06;;;18.01;100.00
8059;BME280;4072;42.668;23.396;2023-06-14T04:57:51;94821.16;;;17.69;100.00
8059;BME280;4072;42.668;23.396;2023-06-14T05:00:20;94887.78;;;18.26;100.00
8059;BME280;4072;42.668;23.396;2023-06-14T05:02:50;94891.06;;;18.03;100.00
8059;BME280;4072;42.668;23.396;2023-06-14T05:05:21;94897.53;;;17.83;100.00
8059;BME280;4072;42.668;23.396;2023-06-14T05:07:49;94900.75;;;17.87;100.00
8059;BME280;4072;42.668;23.396;2023-06-14T05:10:17;94896.75;;;17.88;100.00
8059;BME280;4072;42.668;23.396;2023-06-14T05:12:46;94901.75;;;17.84;100.00
8059;BME280;4072;42.668;23.396;2023-06-14T05:15:16;94897.53;;;17.78;100.00
8059;BME280;4072;42.668;23.396;2023-06-14T05:17:45;94903.50;;;17.93;100.00
8059;BME280;4072;42.668;23.396;2023-06-14T05:20:20;94897.53;;;17.94;100.00
8059;BME280;4072;42.668;23.396;2023-06-14T05:22:52;94903.50;;;17.93;100.00
8059;BME280;4072;42.668;23.396;2023-06-14T05:25:22;94903.97;;;17.86;100.00
8059;BME280;4072;42.668;23.396;2023-06-14T05:27:51;94916.91;;;17.80;100.00
8059;BME280;4072;42.668;23.396;2023-06-14T05:30:21;94914.16;;;17.74;100.00
8059;BME280;4072;42.668;23.396;2023-06-14T05:32:53;94895.72;;;17.52;100.00
8059;BME280;4072;42.668;23.396;2023-06-14T05:35:22;94932.81;;;17.76;100.00
8059;BME280;4072;42.668;23.396;2023-06-14T05:37:53;94922.38;;;17.74;100.00
8059;BME280;4072;42.668;23.396;2023-06-14T05:40:22;94934.81;;;17.81;100.00
8059;BME280;4072;42.668;23.396;2023-06-14T05:42:51;94808.38;;;16.99;100.00
8059;BME280;4072;42.668;23.396;2023-06-14T05:45:21;94918.41;;;17.81;100.00
8059;BME280;4072;42.668;23.396;2023-06-14T05:47:52;94928.63;;;17.97;100.00
8059;BME280;4072;42.668;23.396;2023-06-14T05:50:21;94930.84;;;18.04;100.00
8059;BME280;4072;42.668;23.396;2023-06-14T05:52:49;94932.09;;;18.25;100.00
8059;BME280;4072;42.668;23.396;2023-06-14T05:55:18;94913.66;;;18.31;100.00
8059;BME280;4072;42.668;23.396;2023-06-14T05:57:47;94926.88;;;18.38;100.00
8059;BME280;4072;42.668;23.396;2023-06-14T06:00:16;94931.34;;;18.30;100.00
8059;BME280;4072;42.668;23.396;2023-06-14T06:02:47;94920.88;;;18.34;100.00
8059;BME280;4072;42.668;23.396;2023-06-14T06:05:16;94923.63;;;18.50;100.00
8059;BME280;4072;42.668;23.396;2023-06-14T06:07:44;94928.28;;;18.72;100.00
8059;BME280;4072;42.668;23.396;2023-06-14T06:10:13;94923.78;;;18.80;100.00
8059;BME280;4072;42.668;23.396;2023-06-14T06:12:41;94926.31;;;18.67;100.00
8059;BME280;4072;42.668;23.396;2023-06-14T06:15:10;94927.31;;;18.64;100.00
8059;BME280;4072;42.668;23.396;2023-06-14T06:17:40;94852.72;;;18.03;100.00
8059;BME280;4072;42.668;23.396;2023-06-14T06:20:24;94933.81;;;18.61;100.00
8059;BME280;4072;42.668;23.396;2023-06-14T06:22:56;94929.78;;;18.73;100.00
8059;BME280;4072;42.668;23.396;2023-06-14T06:25:25;94927.69;;;19.01;100.00
8059;BME280;4072;42.668;23.396;2023-06-14T06:27:54;94927.63;;;19.23;100.00
8059;BME280;4072;42.668;23.396;2023-06-14T06:30:24;94933.13;;;19.23;100.00
8059;BME280;4072;42.668;23.396;2023-06-14T06:32:52;94929.09;;;19.24;100.00
8059;BME280;4072;42.668;23.396;2023-06-14T06:35:24;94936.88;;;19.25;100.00
8059;BME280;4072;42.668;23.396;2023-06-14T06:37:53;94935.59;;;19.21;100.00
8059;BME280;4072;42.668;23.396;2023-06-14T06:40:22;94917.41;;;19.18;100.00
8059;BME280;4072;42.668;23.396;2023-06-14T06:42:50;94889.63;;;18.92;100.00
8059;BME280;4072;42.668;23.396;2023-06-14T06:45:18;94946.31;;;19.19;100.00
8059;BME280;4072;42.668;23.396;2023-06-14T06:47:52;94941.06;;;19.32;100.00
8059;BME280;4072;42.668;23.396;2023-06-14T06:50:20;94943.53;;;19.41;100.00
8059;BME280;4072;42.668;23.396;2023-06-14T06:52:51;94942.00;;;19.40;100.00
8059;BME280;4072;42.668;23.396;2023-06-14T06:55:20;94942.63;;;19.62;100.00
8059;BME280;4072;42.668;23.396;2023-06-14T06:57:48;94944.19;;;19.93;100.00
8059;BME280;4072;42.668;23.396;2023-06-14T07:00:17;94921.63;;;20.11;100.00
8059;BME280;4072;42.668;23.396;2023-06-14T07:02:46;94931.91;;;20.35;100.00
8059;BME280;4072;42.668;23.396;2023-06-14T07:05:14;94869.09;;;19.90;100.00
8059;BME280;4072;42.668;23.396;2023-06-14T07:07:44;94934.22;;;20.25;100.00
8059;BME280;4072;42.668;23.396;2023-06-14T07:10:15;94932.63;;;20.11;100.00
8059;BME280;4072;42.668;23.396;2023-06-14T07:12:44;94935.28;;;20.22;100.00
8059;BME280;4072;42.668;23.396;2023-06-14T07:15:12;94927.72;;;20.28;100.00
8059;BME280;4072;42.668;23.396;2023-06-14T07:17:41;94934.81;;;20.42;100.00
8059;BME280;4072;42.668;23.396;2023-06-14T07:20:11;94920.56;;;20.44;100.00
8059;BME280;4072;42.668;23.396;2023-06-14T07:22:41;94925.53;;;20.75;100.00
8059;BME280;4072;42.668;23.396;2023-06-14T07:25:10;94928.09;;;20.67;100.00
8059;BME280;4072;42.668;23.396;2023-06-14T07:27:45;94907.13;;;20.40;100.00
8059;BME280;4072;42.668;23.396;2023-06-14T07:30:14;94923.84;;;20.42;100.00
8059;BME280;4072;42.668;23.396;2023-06-14T07:32:43;94874.69;;;20.09;100.00
8059;BME280;4072;42.668;23.396;2023-06-14T07:35:12;94926.38;;;20.40;100.00
8059;BME280;4072;42.668;23.396;2023-06-14T07:37:41;94918.56;;;20.92;100.00
8059;BME280;4072;42.668;23.396;2023-06-14T07:40:11;94915.03;;;21.21;100.00
8059;BME280;4072;42.668;23.396;2023-06-14T07:42:40;94916.53;;;20.98;100.00
8059;BME280;4072;42.668;23.396;2023-06-14T07:45:13;94900.00;;;21.22;100.00
8059;BME280;4072;42.668;23.396;2023-06-14T07:47:42;94927.03;;;22.11;100.00
8059;BME280;4072;42.668;23.396;2023-06-14T07:50:11;94889.53;;;22.52;100.00
8059;BME280;4072;42.668;23.396;2023-06-14T07:52:40;94928.59;;;22.96;100.00
8059;BME280;4072;42.668;23.396;2023-06-14T07:55:08;94913.09;;;23.32;100.00
8059;BME280;4072;42.668;23.396;2023-06-14T07:57:36;94929.34;;;23.35;100.00
8059;BME280;4072;42.668;23.396;2023-06-14T08:00:05;94924.31;;;23.47;100.00
8059;BME280;4072;42.668;23.396;2023-06-14T08:02:38;94933.13;;;23.45;100.00
8059;BME280;4072;42.668;23.396;2023-06-14T08:05:07;94929.63;;;23.58;100.00
8059;BME280;4072;42.668;23.396;2023-06-14T08:07:36;94937.47;;;23.54;100.00
8059;BME280;4072;42.668;23.396;2023-06-14T08:10:04;94921.13;;;23.43;100.00
8059;BME280;4072;42.668;23.396;2023-06-14T08:12:33;94952.03;;;24.01;100.00
8059;BME280;4072;42.668;23.396;2023-06-14T08:15:01;94951.38;;;24.49;100.00
8059;BME280;4072;42.668;23.396;2023-06-14T08:17:42;94953.22;;;24.67;100.00
8059;BME280;4072;42.668;23.396;2023-06-14T08:20:11;94951.03;;;24.73;100.00
8059;BME280;4072;42.668;23.396;2023-06-14T08:22:40;94952.22;;;24.85;100.00
8059;BME280;4072;42.668;23.396;2023-06-14T08:25:09;94959.03;;;25.04;100.00
8059;BME280;4072;42.668;23.396;2023-06-14T08:27:38;94946.91;;;25.15;100.00
8059;BME280;4072;42.668;23.396;2023-06-14T08:30:08;94941.28;;;25.28;100.00
8059;BME280;4072;42.668;23.396;2023-06-14T08:32:36;94964.22;;;25.08;93.98
8059;BME280;4072;42.668;23.396;2023-06-14T08:35:08;94950.47;;;24.95;99.41
8059;BME280;4072;42.668;23.396;2023-06-14T08:37:38;94963.03;;;24.96;96.53
8059;BME280;4072;42.668;23.396;2023-06-14T08:40:17;94951.03;;;24.73;100.00
8059;BME280;4072;42.668;23.396;2023-06-14T08:42:48;94950.28;;;24.93;99.19
8059;BME280;4072;42.668;23.396;2023-06-14T08:45:18;94953.91;;;25.16;100.00
8059;BME280;4072;42.668;23.396;2023-06-14T08:47:51;94948.50;;;25.03;100.00
8059;BME280;4072;42.668;23.396;2023-06-14T08:50:27;94923.00;;;24.69;100.00
8059;BME280;4072;42.668;23.396;2023-06-14T08:52:59;94947.94;;;24.56;100.00
8059;BME280;4072;42.668;23.396;2023-06-14T08:55:31;94934.84;;;24.77;100.00
8059;BME280;4072;42.668;23.396;2023-06-14T08:58:03;94809.34;;;24.11;96.19
8059;BME280;4072;42.668;23.396;2023-06-14T09:00:33;94861.63;;;24.50;96.69
8059;BME280;4072;42.668;23.396;2023-06-14T09:03:01;94937.31;;;25.16;98.94
8059;BME280;4072;42.668;23.396;2023-06-14T09:05:31;94942.97;;;24.75;100.00
8059;BME280;4072;42.668;23.396;2023-06-14T09:08:00;94940.13;;;24.47;100.00
8059;BME280;4072;42.668;23.396;2023-06-14T09:10:32;94933.91;;;24.54;100.00
8059;BME280;4072;42.668;23.396;2023-06-14T09:13:02;94933.84;;;24.67;100.00
8059;BME280;4072;42.668;23.396;2023-06-14T09:15:31;94931.91;;;24.75;100.00
8059;BME280;4072;42.668;23.396;2023-06-14T09:18:01;94927.69;;;24.61;100.00
8059;BME280;4072;42.668;23.396;2023-06-14T09:20:32;94930.19;;;24.51;100.00
8059;BME280;4072;42.668;23.396;2023-06-14T09:23:00;94923.81;;;24.36;100.00
8059;BME280;4072;42.668;23.396;2023-06-14T09:25:29;94930.88;;;24.44;100.00
8059;BME280;4072;42.668;23.396;2023-06-14T09:28:06;94930.06;;;24.57;100.00
8059;BME280;4072;42.668;23.396;2023-06-14T09:30:36;94934.78;;;24.49;100.00
8059;BME280;4072;42.668;23.396;2023-06-14T09:33:05;94927.44;;;24.72;98.70
8059;BME280;4072;42.668;23.396;2023-06-14T09:35:35;94928.63;;;24.84;97.68
8059;BME280;4072;42.668;23.396;2023-06-14T09:38:04;94917.66;;;24.71;94.83
8059;BME280;4072;42.668;23.396;2023-06-14T09:40:35;94918.75;;;24.68;96.50
8059;BME280;4072;42.668;23.396;2023-06-14T09:43:07;94924.84;;;24.74;96.03
8059;BME280;4072;42.668;23.396;2023-06-14T09:45:38;94921.69;;;24.70;95.21
8059;BME280;4072;42.668;23.396;2023-06-14T09:48:08;94873.75;;;24.47;97.78
8059;BME280;4072;42.668;23.396;2023-06-14T09:50:39;94913.41;;;24.98;92.71
8059;BME280;4072;42.668;23.396;2023-06-14T09:53:10;94910.72;;;25.13;91.32
8059;BME280;4072;42.668;23.396;2023-06-14T09:55:41;94918.63;;;25.37;92.42
8059;BME280;4072;42.668;23.396;2023-06-14T09:58:10;94915.38;;;25.53;89.30
8059;BME280;4072;42.668;23.396;2023-06-14T10:00:39;94912.75;;;25.48;84.80
8059;BME280;4072;42.668;23.396;2023-06-14T10:03:13;94904.97;;;25.39;87.75
8059;BME280;4072;42.668;23.396;2023-06-14T10:05:45;94904.28;;;25.46;86.65
8059;BME280;4072;42.668;23.396;2023-06-14T10:08:16;94910.53;;;25.39;84.37
8059;BME280;4072;42.668;23.396;2023-06-14T10:10:46;94905.97;;;25.21;84.89
8059;BME280;4072;42.668;23.396;2023-06-14T10:13:15;94904.47;;;25.20;86.94
8059;BME280;4072;42.668;23.396;2023-06-14T10:15:52;94898.34;;;25.42;83.83
8059;BME280;4072;42.668;23.396;2023-06-14T10:18:30;94886.19;;;25.52;86.68
8059;BME280;4072;42.668;23.396;2023-06-14T10:21:08;94879.53;;;25.48;81.38
8059;BME280;4072;42.668;23.396;2023-06-14T10:23:42;94881.31;;;25.38;81.43
8059;BME280;4072;42.668;23.396;2023-06-14T10:26:20;94888.28;;;25.67;85.21
8059;BME280;4072;42.668;23.396;2023-06-14T10:28:59;94885.13;;;25.63;77.56
8059;BME280;4072;42.668;23.396;2023-06-14T10:31:40;94885.13;;;25.63;80.83
8059;BME280;4072;42.668;23.396;2023-06-14T10:34:09;94879.06;;;25.72;79.84
8059;BME280;4072;42.668;23.396;2023-06-14T10:36:42;94885.91;;;25.86;78.21
8059;BME280;4072;42.668;23.396;2023-06-14T10:39:16;94886.16;;;25.37;82.12
8059;BME280;4072;42.668;23.396;2023-06-14T10:41:53;94877.00;;;25.22;82.38
8059;BME280;4072;42.668;23.396;2023-06-14T10:44:41;94879.84;;;25.37;81.82
8059;BME280;4072;42.668;23.396;2023-06-14T10:47:19;94882.28;;;25.40;84.86
8059;BME280;4072;42.668;23.396;2023-06-14T10:49:51;94870.47;;;25.12;89.17
8059;BME280;4072;42.668;23.396;2023-06-14T10:52:26;94865.09;;;25.34;85.82
8059;BME280;4072;42.668;23.396;2023-06-14T10:55:05;94859.69;;;25.95;83.58
8059;BME280;4072;42.668;23.396;2023-06-14T10:57:37;94828.28;;;25.92;84.06
8059;BME280;4072;42.668;23.396;2023-06-14T11:00:18;94857.16;;;26.04;75.71
8059;BME280;4072;42.668;23.396;2023-06-14T11:03:28;94853.63;;;25.96;81.62
8059;BME280;4072;42.668;23.396;2023-06-14T11:05:59;94851.81;;;26.21;77.00
8059;BME280;4072;42.668;23.396;2023-06-14T11:08:51;94844.56;;;26.56;74.83
8059;BME280;4072;42.668;23.396;2023-06-14T11:11:32;94844.53;;;25.81;76.87
8059;BME280;4072;42.668;23.396;2023-06-14T11:14:02;94848.25;;;25.91;79.58
8059;BME280;4072;42.668;23.396;2023-06-14T11:16:30;94853.41;;;25.94;75.25
8059;BME280;4072;42.668;23.396;2023-06-14T11:19:00;94850.81;;;25.89;78.44
8059;BME280;4072;42.668;23.396;2023-06-14T11:21:32;94846.06;;;26.19;75.61
8059;BME280;4072;42.668;23.396;2023-06-14T11:24:03;94839.78;;;26.71;73.44
8059;BME280;4072;42.668;23.396;2023-06-14T11:26:33;94835.94;;;27.29;69.04
8059;BME280;4072;42.668;23.396;2023-06-14T11:29:03;94823.66;;;27.39;71.47
8059;BME280;4072;42.668;23.396;2023-06-14T11:31:31;94837.91;;;27.43;68.77
8059;BME280;4072;42.668;23.396;2023-06-14T11:34:00;94820.78;;;27.07;65.94
8059;BME280;4072;42.668;23.396;2023-06-14T11:36:30;94834.59;;;26.75;69.83
8059;BME280;4072;42.668;23.396;2023-06-14T11:38:59;94841.44;;;26.59;65.78
8059;BME280;4072;42.668;23.396;2023-06-14T11:41:47;94839.38;;;26.82;65.99
8059;BME280;4072;42.668;23.396;2023-06-14T11:44:16;94824.63;;;26.42;71.71
8059;BME280;4072;42.668;23.396;2023-06-14T11:46:45;94829.44;;;26.49;73.55
8059;BME280;4072;42.668;23.396;2023-06-14T11:49:14;94825.72;;;26.39;72.82
8059;BME280;4072;42.668;23.396;2023-06-14T11:51:42;94818.88;;;26.40;75.82
8059;BME280;4072;42.668;23.396;2023-06-14T11:54:12;94815.41;;;26.17;76.96
8059;BME280;4072;42.668;23.396;2023-06-14T11:56:42;94806.13;;;26.22;76.15
8059;BME280;4072;42.668;23.396;2023-06-14T11:59:13;94807.63;;;26.16;77.66
8059;BME280;4072;42.668;23.396;2023-06-14T12:01:42;94800.25;;;26.03;76.39
8059;BME280;4072;42.668;23.396;2023-06-14T12:04:12;94791.34;;;25.97;78.54
8059;BME280;4072;42.668;23.396;2023-06-14T12:06:41;94786.19;;;26.16;79.86
8059;BME280;4072;42.668;23.396;2023-06-14T12:09:11;94784.69;;;26.15;80.73
8059;BME280;4072;42.668;23.396;2023-06-14T12:11:46;94785.25;;;26.21;76.97
8059;BME280;4072;42.668;23.396;2023-06-14T12:14:14;94783.78;;;26.20;78.42
8059;BME280;4072;42.668;23.396;2023-06-14T12:16:42;94789.16;;;26.03;76.72
8059;BME280;4072;42.668;23.396;2023-06-14T12:19:14;94782.50;;;25.99;77.38
8059;BME280;4072;42.668;23.396;2023-06-14T12:21:46;94790.25;;;26.00;74.63
8059;BME280;4072;42.668;23.396;2023-06-14T12:24:15;94789.13;;;25.96;76.96
8059;BME280;4072;42.668;23.396;2023-06-14T12:26:46;94778.03;;;25.88;70.70
8059;BME280;4072;42.668;23.396;2023-06-14T12:29:14;94779.50;;;25.89;72.75
8059;BME280;4072;42.668;23.396;2023-06-14T12:31:43;94784.69;;;25.85;72.80
8059;BME280;4072;42.668;23.396;2023-06-14T12:34:11;94771.38;;;25.76;73.60
8059;BME280;4072;42.668;23.396;2023-06-14T12:36:39;94785.41;;;25.71;74.87
8059;BME280;4072;42.668;23.396;2023-06-14T12:39:11;94770.25;;;25.64;79.39
8059;BME280;4072;42.668;23.396;2023-06-14T12:41:40;94767.31;;;26.00;77.18
8059;BME280;4072;42.668;23.396;2023-06-14T12:44:11;94761.78;;;25.92;75.75
8059;BME280;4072;42.668;23.396;2023-06-14T12:46:40;94764.56;;;25.77;73.66
8059;BME280;4072;42.668;23.396;2023-06-14T12:49:09;94759.38;;;25.81;77.00
8059;BME280;4072;42.668;23.396;2023-06-14T12:51:39;94752.00;;;25.91;72.41
8059;BME280;4072;42.668;23.396;2023-06-14T12:54:08;94749.22;;;26.21;69.58
8059;BME280;4072;42.668;23.396;2023-06-14T12:56:36;94741.09;;;26.08;65.96
8059;BME280;4072;42.668;23.396;2023-06-14T12:59:05;94749.53;;;26.40;65.32
8059;BME280;4072;42.668;23.396;2023-06-14T13:01:38;94697.03;;;26.42;63.25
8059;BME280;4072;42.668;23.396;2023-06-14T13:04:06;94752.84;;;26.69;61.24
8059;BME280;4072;42.668;23.396;2023-06-14T13:06:35;94751.38;;;26.60;65.01
8059;BME280;4072;42.668;23.396;2023-06-14T13:09:03;94757.31;;;26.49;75.88
8059;BME280;4072;42.668;23.396;2023-06-14T13:11:32;94754.34;;;26.62;77.80
8059;BME280;4072;42.668;23.396;2023-06-14T13:14:01;94753.75;;;26.71;80.35
8059;BME280;4072;42.668;23.396;2023-06-14T13:16:51;94752.63;;;26.74;80.44
8059;BME280;4072;42.668;23.396;2023-06-14T13:19:20;94754.16;;;26.60;92.19